Time;durP1;ratioP1;P1;durP2;ratioP2;P2;SDS_P1;SDS_P2;PMS_P1;PMS_P2;Temp;Humidity;BMP_temperature;BMP_pressure;BME280_temperature;BME280_humidity;BME280_pressure;Samples;Min_cycle;Max_cycle;Signal;HPM_P1;HPM_P2
2022/10/19 00:15:53;;;;;;;15.72;9.50;;;;;;;13.17;44.25;100449.27;1770995;78;23479;-45
2022/10/19 00:18:21;;;;;;;14.58;8.85;;;;;;;13.24;44.02;100448.73;1748768;80;21041;-47
2022/10/19 00:20:48;;;;;;;14.33;9.23;;;;;;;13.23;44.02;100451.01;1748498;80;21221;-47
2022/10/19 00:23:14;;;;;;;19.20;10.08;;;;;;;13.15;44.10;100444.62;1736787;80;21046;-47
2022/10/19 00:25:41;;;;;;;15.35;9.33;;;;;;;13.06;44.21;100443.28;1770931;79;20982;-46
2022/10/19 00:28:07;;;;;;;17.23;9.03;;;;;;;12.94;44.50;100438.61;1758368;80;21039;-47
2022/10/19 00:30:37;;;;;;;13.65;8.63;;;;;;;12.86;44.65;100442.42;1740512;80;21662;-48
2022/10/19 00:33:03;;;;;;;13.70;8.80;;;;;;;12.74;44.83;100431.99;1732293;80;21113;-48
2022/10/19 00:35:30;;;;;;;17.98;9.85;;;;;;;12.63;45.15;100422.36;1738746;80;21086;-47
2022/10/19 00:37:56;;;;;;;13.88;8.90;;;;;;;12.57;45.39;100416.78;1729162;80;20970;-47
2022/10/19 00:40:24;;;;;;;14.40;8.95;;;;;;;12.49;45.59;100413.98;1730019;80;21100;-47
2022/10/19 00:42:55;;;;;;;16.48;8.85;;;;;;;12.41;45.81;100406.27;1732977;80;21101;-46
2022/10/19 00:45:22;;;;;;;14.60;8.35;;;;;;;12.36;45.94;100405.00;1737091;80;21242;-46
2022/10/19 00:47:49;;;;;;;14.83;8.85;;;;;;;12.30;46.09;100402.39;1740548;80;21015;-47
2022/10/19 00:50:16;;;;;;;14.35;9.25;;;;;;;12.24;46.31;100398.50;1749463;80;21090;-46
2022/10/19 00:52:42;;;;;;;15.15;9.25;;;;;;;12.21;46.46;100395.30;1731959;80;21109;-47
2022/10/19 00:55:09;;;;;;;13.40;9.18;;;;;;;12.16;46.61;100394.37;1729896;80;21105;-46
2022/10/19 00:57:35;;;;;;;15.53;8.50;;;;;;;12.11;46.75;100391.79;1752150;80;21222;-46
2022/10/19 01:00:04;;;;;;;17.87;9.28;;;;;;;12.06;46.90;100378.98;1734660;80;21065;-47
2022/10/19 01:02:31;;;;;;;18.95;9.73;;;;;;;12.08;46.99;100379.19;1739488;80;21050;-47
2022/10/19 01:04:58;;;;;;;17.90;9.60;;;;;;;11.98;47.23;100374.86;1760619;80;21033;-47
2022/10/19 01:07:25;;;;;;;12.75;8.75;;;;;;;11.94;47.40;100368.19;1742937;80;21066;-46
2022/10/19 01:09:53;;;;;;;14.68;8.63;;;;;;;11.90;47.58;100367.10;1741919;80;21281;-47
2022/10/19 01:12:47;;;;;;;14.68;8.83;;;;;;;11.88;47.67;100358.95;1741197;80;21489;-47
2022/10/19 01:15:42;;;;;;;12.07;8.05;;;;;;;11.87;47.72;100358.63;1730462;80;21574;-46
2022/10/19 01:18:21;;;;;;;13.18;8.40;;;;;;;11.85;47.93;100359.22;1727977;81;21532;-47
2022/10/19 01:21:08;;;;;;;16.48;9.33;;;;;;;11.81;48.08;100352.55;1719893;80;21011;-47
2022/10/19 01:24:12;;;;;;;16.45;8.55;;;;;;;11.78;48.29;100354.95;1731782;80;21272;-46
2022/10/19 01:27:14;;;;;;;16.07;8.28;;;;;;;11.76;48.38;100342.39;1733605;80;21155;-47
2022/10/19 01:30:08;;;;;;;16.32;9.08;;;;;;;11.76;48.40;100344.20;1726668;82;21008;-47
2022/10/19 01:32:46;;;;;;;16.80;8.50;;;;;;;11.75;48.52;100339.88;1730641;80;21541;-47
2022/10/19 01:35:23;;;;;;;12.43;8.38;;;;;;;11.75;48.70;100343.84;1732376;82;21109;-47
2022/10/19 01:38:03;;;;;;;14.00;8.73;;;;;;;11.74;48.75;100339.05;1744978;80;21200;-47
2022/10/19 01:40:54;;;;;;;14.73;8.40;;;;;;;11.72;48.86;100337.05;1743476;81;21129;-46
2022/10/19 01:43:39;;;;;;;12.07;8.48;;;;;;;11.70;49.17;100347.72;1730987;80;21058;-47
2022/10/19 01:46:32;;;;;;;15.63;8.75;;;;;;;11.69;49.15;100332.85;1735593;80;21117;-47
2022/10/19 01:49:18;;;;;;;13.08;8.85;;;;;;;11.66;49.35;100333.11;1757435;80;21062;-47
2022/10/19 01:51:49;;;;;;;15.15;8.15;;;;;;;11.65;49.48;100335.87;1739773;80;21221;-46
2022/10/19 01:54:16;;;;;;;13.98;8.18;;;;;;;11.66;49.61;100326.52;1732817;80;21167;-47
2022/10/19 01:56:43;;;;;;;17.55;8.68;;;;;;;11.65;49.72;100325.33;1734110;80;21089;-46
2022/10/19 01:59:10;;;;;;;13.65;8.53;;;;;;;11.67;49.85;100318.98;1752024;81;21054;-46
2022/10/19 02:01:38;;;;;;;14.98;7.70;;;;;;;11.68;49.96;100319.80;1753272;80;21078;-47
2022/10/19 02:04:05;;;;;;;12.13;8.38;;;;;;;11.68;49.98;100311.44;1744286;80;21207;-48
2022/10/19 02:06:31;;;;;;;13.28;8.65;;;;;;;11.71;50.07;100315.09;1751672;80;21108;-46
2022/10/19 02:09:00;;;;;;;14.50;8.83;;;;;;;11.75;50.15;100315.70;1734203;81;21478;-46
2022/10/19 02:11:26;;;;;;;16.42;8.63;;;;;;;11.77;50.18;100311.13;1748153;80;21027;-47
2022/10/19 02:14:00;;;;;;;17.35;8.70;;;;;;;11.79;50.26;100304.41;1728784;82;21053;-48
2022/10/19 02:16:31;;;;;;;16.37;9.23;;;;;;;11.79;50.39;100305.72;1729903;80;21124;-47
2022/10/19 02:18:59;;;;;;;16.97;9.08;;;;;;;11.81;50.46;100299.82;1734716;81;21505;-47
2022/10/19 02:21:26;;;;;;;15.98;8.28;;;;;;;11.81;50.49;100300.65;1724542;80;21045;-47
2022/10/19 02:23:53;;;;;;;14.68;8.90;;;;;;;11.81;50.54;100296.69;1766048;80;21054;-47
2022/10/19 02:26:20;;;;;;;14.20;9.05;;;;;;;11.81;50.71;100305.09;1752717;80;21125;-47
2022/10/19 02:28:47;;;;;;;17.20;9.03;;;;;;;11.81;50.69;100295.87;1743489;80;21101;-47
2022/10/19 02:31:13;;;;;;;14.28;8.33;;;;;;;11.80;50.77;100288.45;1735786;80;21536;-47
2022/10/19 02:33:40;;;;;;;13.40;8.28;;;;;;;11.81;50.94;100286.64;1729583;80;21784;-48
2022/10/19 02:36:07;;;;;;;14.55;8.55;;;;;;;11.78;51.04;100288.22;1704834;81;21074;-47
2022/10/19 02:38:34;;;;;;;18.98;9.68;;;;;;;11.76;51.18;100289.67;1732258;80;21533;-47
2022/10/19 02:41:09;;;;;;;13.25;8.18;;;;;;;11.78;51.21;100288.22;1737769;80;21200;-47
2022/10/19 02:43:37;;;;;;;14.55;8.35;;;;;;;11.75;51.38;100288.48;1745727;80;21074;-47
2022/10/19 02:46:12;;;;;;;14.53;9.98;;;;;;;11.70;51.60;100281.82;1753136;80;21561;-47
2022/10/19 02:48:39;;;;;;;12.30;8.15;;;;;;;11.69;51.67;100277.50;1731901;80;21470;-47
2022/10/19 02:51:05;;;;;;;15.15;8.75;;;;;;;11.67;51.77;100284.72;1738322;80;21468;-47
2022/10/19 02:53:32;;;;;;;13.68;8.58;;;;;;;11.65;51.93;100277.89;1731116;80;21322;-47
2022/10/19 02:55:58;;;;;;;15.32;8.88;;;;;;;11.65;52.10;100282.70;1735622;80;21031;-47
2022/10/19 02:58:25;;;;;;;16.82;9.75;;;;;;;11.64;52.28;100286.30;1738838;80;21109;-47
2022/10/19 03:00:51;;;;;;;15.48;9.58;;;;;;;11.64;52.44;100287.61;1758691;80;21535;-47
2022/10/19 03:03:18;;;;;;;16.57;8.98;;;;;;;11.64;52.44;100279.70;1738692;80;21584;-47
2022/10/19 03:05:45;;;;;;;14.55;8.08;;;;;;;11.64;52.68;100290.25;1758589;80;21438;-47
2022/10/19 03:08:11;;;;;;;15.83;9.70;;;;;;;11.64;52.75;100287.61;1731925;80;21254;-47
2022/10/19 03:10:38;;;;;;;20.23;9.58;;;;;;;11.65;52.99;100289.29;1739198;81;21070;-47
2022/10/19 03:13:05;;;;;;;14.40;9.38;;;;;;;11.67;53.02;100278.63;1751948;80;21481;-48
2022/10/19 03:15:31;;;;;;;16.40;9.05;;;;;;;11.66;53.07;100276.44;1760679;80;21477;-47
2022/10/19 03:17:58;;;;;;;15.20;8.95;;;;;;;11.68;53.09;100283.76;1754073;80;22683;-47
2022/10/19 03:20:26;;;;;;;15.65;9.55;;;;;;;11.67;53.11;100276.81;1747703;81;21070;-48
2022/10/19 03:22:52;;;;;;;16.32;9.28;;;;;;;11.67;53.18;100278.63;1743736;80;21034;-47
2022/10/19 03:25:19;;;;;;;14.58;9.78;;;;;;;11.65;53.19;100263.39;1733522;80;21541;-47
2022/10/19 03:27:46;;;;;;;18.92;9.33;;;;;;;11.66;53.36;100267.22;1744562;80;21065;-47
2022/10/19 03:30:14;;;;;;;14.90;9.70;;;;;;;11.66;53.55;100264.58;1729537;80;21233;-48
2022/10/19 03:32:41;;;;;;;16.37;10.15;;;;;;;11.67;53.66;100249.63;1746165;80;21034;-47
2022/10/19 03:35:08;;;;;;;20.82;11.18;;;;;;;11.67;53.92;100254.41;1730420;80;21011;-48
2022/10/19 03:37:36;;;;;;;17.00;10.43;;;;;;;11.67;54.05;100246.50;1746425;80;21062;-47
2022/10/19 03:40:04;;;;;;;17.67;10.35;;;;;;;11.69;54.52;100249.83;1715300;82;21018;-48
2022/10/19 03:42:31;;;;;;;18.45;9.93;;;;;;;11.71;54.53;100245.25;1743874;80;21813;-49
2022/10/19 03:44:57;;;;;;;15.18;10.48;;;;;;;11.76;54.67;100259.84;1691687;84;21077;-48
2022/10/19 03:47:25;;;;;;;17.45;10.55;;;;;;;11.78;54.67;100260.55;1733044;80;21012;-51
2022/10/19 03:49:52;;;;;;;16.77;10.78;;;;;;;11.80;54.84;100260.77;1711110;82;21051;-49
2022/10/19 03:52:19;;;;;;;16.10;10.05;;;;;;;11.83;54.88;100251.75;1725634;81;21066;-48
2022/10/19 03:54:50;;;;;;;16.10;10.55;;;;;;;11.85;54.79;100243.21;1710563;82;21290;-48
2022/10/19 03:57:17;;;;;;;16.20;10.72;;;;;;;11.86;54.92;100240.94;1705471;81;21070;-48
2022/10/19 03:59:45;;;;;;;16.32;10.40;;;;;;;11.87;54.95;100234.21;1703524;81;21098;-48
2022/10/19 04:02:12;;;;;;;17.35;11.20;;;;;;;11.88;54.94;100230.63;1716168;81;21062;-47
2022/10/19 04:04:38;;;;;;;17.82;10.32;;;;;;;11.89;55.04;100232.27;1713664;82;21031;-47
2022/10/19 04:07:05;;;;;;;15.68;9.40;;;;;;;11.92;55.04;100223.77;1730312;81;21237;-48
2022/10/19 04:09:32;;;;;;;16.70;10.65;;;;;;;11.93;55.06;100227.59;1750030;80;21088;-47
2022/10/19 04:11:59;;;;;;;13.05;9.85;;;;;;;11.94;55.11;100219.22;1743210;80;21085;-47
2022/10/19 04:14:27;;;;;;;14.98;10.20;;;;;;;11.95;55.13;100228.28;1737420;81;21101;-47
2022/10/19 04:16:54;;;;;;;19.17;10.80;;;;;;;11.96;55.09;100232.59;1739760;80;21043;-47
2022/10/19 04:19:22;;;;;;;14.70;10.72;;;;;;;11.97;55.28;100238.69;1750546;80;21113;-47
2022/10/19 04:21:49;;;;;;;16.27;10.80;;;;;;;11.96;55.43;100241.00;1740480;80;22210;-47
2022/10/19 04:24:18;;;;;;;15.15;10.18;;;;;;;11.96;55.55;100241.00;1776365;80;21034;-47
2022/10/19 04:26:50;;;;;;;18.17;10.60;;;;;;;11.94;55.67;100241.13;1755138;80;21066;-47
2022/10/19 04:29:18;;;;;;;19.20;10.95;;;;;;;11.93;55.71;100244.73;1737680;80;21038;-47
2022/10/19 04:31:48;;;;;;;15.93;11.00;;;;;;;11.93;55.97;100241.27;1747082;80;21143;-47
2022/10/19 04:34:15;;;;;;;15.83;10.48;;;;;;;11.93;56.23;100245.22;1742605;80;21532;-47
2022/10/19 04:36:43;;;;;;;14.20;10.80;;;;;;;11.96;56.26;100242.31;1746333;80;21602;-48
2022/10/19 04:39:10;;;;;;;16.97;11.25;;;;;;;12.03;56.23;100241.63;1736190;81;21045;-47
2022/10/19 04:41:37;;;;;;;16.97;10.88;;;;;;;12.10;56.11;100239.77;1737466;81;21085;-48
2022/10/19 04:44:07;;;;;;;17.70;11.00;;;;;;;12.11;56.22;100244.91;1740065;81;21233;-47
2022/10/19 04:46:34;;;;;;;17.27;9.93;;;;;;;12.09;56.37;100241.58;1743077;80;21463;-48
2022/10/19 04:49:03;;;;;;;16.77;10.95;;;;;;;12.06;56.46;100242.67;1743446;80;21098;-48
2022/10/19 04:51:29;;;;;;;15.10;11.08;;;;;;;12.05;56.71;100250.26;1754178;80;21003;-47
2022/10/19 04:53:57;;;;;;;22.48;11.60;;;;;;;12.04;56.89;100243.30;1725294;80;21065;-47
2022/10/19 04:56:29;;;;;;;19.62;11.78;;;;;;;12.06;56.99;100241.36;1755415;80;21270;-47
2022/10/19 04:58:56;;;;;;;18.67;11.25;;;;;;;12.05;57.36;100249.40;1718294;81;21047;-47
2022/10/19 05:01:23;;;;;;;16.10;11.35;;;;;;;12.05;57.52;100254.21;1725412;81;21081;-47
2022/10/19 05:03:55;;;;;;;22.93;12.07;;;;;;;12.05;57.69;100250.26;1735314;81;21046;-47
2022/10/19 05:06:23;;;;;;;18.15;10.93;;;;;;;12.06;57.80;100238.72;1749148;81;21014;-47
2022/10/19 05:08:49;;;;;;;17.00;11.28;;;;;;;12.13;57.96;100240.83;1715974;81;21230;-48
2022/10/19 05:11:16;;;;;;;20.17;12.07;;;;;;;12.23;57.97;100254.36;1707851;81;21085;-47
2022/10/19 05:13:45;;;;;;;15.48;11.90;;;;;;;12.31;58.33;100258.97;1709675;81;21072;-47
2022/10/19 05:16:17;;;;;;;19.57;12.85;;;;;;;12.35;58.57;100267.44;1704324;81;21062;-47
2022/10/19 05:18:51;;;;;;;17.45;12.18;;;;;;;12.38;58.85;100275.08;1708850;82;21081;-48
2022/10/19 05:21:18;;;;;;;17.35;13.08;;;;;;;12.40;59.23;100268.69;1725759;81;21142;-47
2022/10/19 05:23:44;;;;;;;19.12;12.53;;;;;;;12.42;59.63;100273.36;1742758;80;21117;-48
2022/10/19 05:26:17;;;;;;;19.23;12.43;;;;;;;12.44;60.33;100264.81;1730379;80;21033;-47
2022/10/19 05:28:49;;;;;;;20.32;12.13;;;;;;;12.52;60.93;100281.76;1730920;81;21426;-47
2022/10/19 05:31:18;;;;;;;24.12;13.58;;;;;;;12.63;60.93;100287.73;1733012;80;21385;-47
2022/10/19 05:33:46;;;;;;;23.18;12.82;;;;;;;12.75;61.02;100288.43;1729073;80;21817;-46
2022/10/19 05:36:31;;;;;;;19.65;13.00;;;;;;;12.82;61.44;100292.17;1747586;80;21026;-47
2022/10/19 05:39:03;;;;;;;20.57;13.68;;;;;;;12.88;61.91;100288.63;1749154;80;21382;-49
2022/10/19 05:41:30;;;;;;;19.02;12.80;;;;;;;12.92;62.57;100282.10;1706551;81;21076;-46
2022/10/19 05:43:58;;;;;;;22.07;13.78;;;;;;;12.95;63.31;100291.08;1727296;81;21027;-46
2022/10/19 05:46:26;;;;;;;20.80;12.88;;;;;;;12.98;63.61;100288.98;1730164;80;21197;-47
2022/10/19 05:48:56;;;;;;;18.95;14.03;;;;;;;12.97;64.09;100280.70;1748885;80;21038;-47
2022/10/19 05:51:23;;;;;;;18.60;12.95;;;;;;;12.92;64.43;100279.46;1748150;80;21160;-47
2022/10/19 05:53:49;;;;;;;21.30;14.18;;;;;;;12.86;64.97;100294.53;1748918;81;21046;-46
2022/10/19 05:56:21;;;;;;;19.70;13.25;;;;;;;12.82;65.49;100305.37;1755068;80;21050;-46
2022/10/19 05:58:50;;;;;;;20.05;13.08;;;;;;;12.79;66.03;100312.28;1753471;80;21025;-46
2022/10/19 06:01:18;;;;;;;21.12;13.45;;;;;;;12.81;66.38;100312.97;1748504;80;21094;-46
2022/10/19 06:03:45;;;;;;;20.90;14.47;;;;;;;12.80;66.89;100316.56;1757411;80;21073;-46
2022/10/19 06:06:12;;;;;;;22.30;13.35;;;;;;;12.75;67.16;100304.27;1758199;80;21059;-53
2022/10/19 06:08:39;;;;;;;21.02;13.78;;;;;;;12.74;67.37;100311.86;1754438;80;21787;-53
2022/10/19 06:11:13;;;;;;;17.95;13.30;;;;;;;12.74;67.29;100311.00;1752867;79;21028;-54
2022/10/19 06:13:40;;;;;;;16.65;12.73;;;;;;;12.77;67.26;100310.73;1738987;80;21031;-54
2022/10/19 06:16:09;;;;;;;20.52;14.30;;;;;;;12.83;67.02;100316.79;1726355;82;21542;-57
2022/10/19 06:18:36;;;;;;;18.70;12.82;;;;;;;12.88;67.06;100320.31;1739243;80;21085;-54
2022/10/19 06:21:07;;;;;;;19.05;13.48;;;;;;;12.87;67.05;100316.84;1768194;80;21086;-54
2022/10/19 06:23:34;;;;;;;19.73;13.55;;;;;;;12.88;67.16;100316.35;1728883;80;21122;-47
2022/10/19 06:26:07;;;;;;;22.52;12.93;;;;;;;12.89;67.04;100328.59;1765602;78;21010;-46
2022/10/19 06:28:34;;;;;;;19.20;12.20;;;;;;;12.85;67.14;100335.14;1725223;80;20995;-47
2022/10/19 06:31:01;;;;;;;19.75;14.50;;;;;;;12.84;67.19;100342.20;1757699;80;21054;-46
2022/10/19 06:33:31;;;;;;;18.67;13.28;;;;;;;12.82;67.39;100340.20;1731197;80;21065;-47
2022/10/19 06:36:13;;;;;;;17.65;12.82;;;;;;;12.80;67.65;100342.15;1734895;80;21255;-47
2022/10/19 06:38:41;;;;;;;17.57;13.83;;;;;;;12.78;67.79;100346.25;1757564;80;21506;-48
2022/10/19 06:41:08;;;;;;;17.17;12.05;;;;;;;12.80;67.82;100342.15;1749096;80;21201;-47
2022/10/19 06:43:36;;;;;;;19.70;13.10;;;;;;;12.81;67.85;100343.33;1749969;80;21035;-46
2022/10/19 06:46:07;;;;;;;21.57;14.05;;;;;;;12.89;67.83;100341.80;1754595;80;21083;-46
2022/10/19 06:48:33;;;;;;;19.17;14.00;;;;;;;12.95;67.83;100330.19;1752568;80;21120;-46
2022/10/19 06:51:02;;;;;;;20.15;14.55;;;;;;;13.01;67.76;100329.64;1746381;80;21085;-47
2022/10/19 06:53:29;;;;;;;21.00;14.95;;;;;;;13.05;67.66;100331.52;1751361;80;20983;-46
2022/10/19 06:55:59;;;;;;;20.15;12.73;;;;;;;13.02;67.61;100339.71;1760376;81;21083;-46
2022/10/19 06:58:26;;;;;;;17.75;13.40;;;;;;;12.98;67.80;100348.91;1747445;80;21121;-47
2022/10/19 07:00:56;;;;;;;23.12;13.43;;;;;;;12.99;67.85;100355.83;1754019;80;21285;-45
2022/10/19 07:03:27;;;;;;;21.90;13.15;;;;;;;13.02;67.86;100362.16;1751571;80;21085;-46
2022/10/19 07:05:57;;;;;;;25.45;14.07;;;;;;;13.01;67.94;100375.87;1755827;80;21082;-46
2022/10/19 07:08:26;;;;;;;16.95;11.95;;;;;;;13.00;68.11;100372.86;1752930;80;21034;-46
2022/10/19 07:10:56;;;;;;;18.57;12.18;;;;;;;13.00;68.15;100378.64;1715669;81;21049;-46
2022/10/19 07:13:23;;;;;;;18.77;12.33;;;;;;;13.04;68.02;100376.06;1721031;81;21246;-46
2022/10/19 07:16:01;;;;;;;15.00;10.48;;;;;;;13.15;67.73;100373.78;1728582;82;21098;-46
2022/10/19 07:18:28;;;;;;;18.85;10.72;;;;;;;13.19;67.32;100377.30;1734714;81;21665;-46
2022/10/19 07:20:59;;;;;;;16.10;10.80;;;;;;;13.22;67.26;100372.73;1733185;81;21133;-47
2022/10/19 07:23:27;;;;;;;15.78;10.50;;;;;;;13.26;67.23;100370.97;1736702;81;21082;-47
2022/10/19 07:26:00;;;;;;;16.73;9.53;;;;;;;13.31;66.93;100371.88;1737634;82;21564;-47
2022/10/19 07:28:24;;;;;;;14.18;8.88;;;;;;;13.38;66.45;100367.72;1734088;81;21029;-47
2022/10/19 07:30:52;;;;;;;15.68;9.60;;;;;;;13.50;66.13;100372.36;1753196;80;21113;-47
2022/10/19 07:33:18;;;;;;;14.85;8.75;;;;;;;13.58;65.74;100368.52;1753628;79;21003;-47
2022/10/19 07:35:46;;;;;;;11.60;6.83;;;;;;;13.62;65.46;100367.27;1746856;80;21549;-46
2022/10/19 07:38:13;;;;;;;12.05;6.95;;;;;;;13.63;64.03;100367.59;1746565;80;22135;-47
2022/10/19 07:40:40;;;;;;;8.50;5.85;;;;;;;13.61;64.11;100366.09;1756832;80;21053;-47
2022/10/19 07:43:06;;;;;;;10.93;5.50;;;;;;;13.56;64.25;100364.69;1749924;80;21043;-47
2022/10/19 07:45:34;;;;;;;11.45;5.58;;;;;;;13.62;64.04;100365.95;1748439;80;21574;-47
2022/10/19 07:48:00;;;;;;;9.65;6.10;;;;;;;13.68;63.18;100361.89;1730827;81;21079;-47
2022/10/19 07:50:28;;;;;;;9.75;4.97;;;;;;;13.70;63.30;100362.58;1750868;81;21568;-47
2022/10/19 07:52:55;;;;;;;7.37;4.17;;;;;;;13.76;63.16;100363.33;1751985;80;21054;-47
2022/10/19 07:55:21;;;;;;;8.90;5.03;;;;;;;13.79;62.65;100358.26;1754305;80;21371;-47
2022/10/19 07:57:49;;;;;;;8.98;3.65;;;;;;;13.81;62.78;100356.30;1747186;80;21019;-46
2022/10/19 08:00:16;;;;;;;5.87;3.00;;;;;;;13.81;62.17;100361.09;1751614;80;21113;-47
2022/10/19 08:02:43;;;;;;;6.92;3.45;;;;;;;13.87;61.50;100355.23;1746134;80;21124;-46
2022/10/19 08:05:10;;;;;;;6.55;3.70;;;;;;;13.85;61.74;100349.72;1728778;82;21100;-48
2022/10/19 08:07:38;;;;;;;6.85;3.10;;;;;;;13.85;61.67;100351.91;1710916;81;21058;-46
2022/10/19 08:10:06;;;;;;;6.90;3.27;;;;;;;13.85;61.71;100340.47;1727703;82;21078;-46
2022/10/19 08:12:36;;;;;;;6.92;3.60;;;;;;;13.86;61.67;100338.17;1728094;81;21021;-46
2022/10/19 08:15:05;;;;;;;7.12;3.40;;;;;;;13.85;61.60;100335.18;1728909;81;21041;-46
2022/10/19 08:17:35;;;;;;;6.47;3.40;;;;;;;13.88;61.76;100340.18;1747477;80;21086;-47
2022/10/19 08:20:04;;;;;;;7.53;3.85;;;;;;;13.97;61.59;100344.62;1749877;80;21335;-46
2022/10/19 08:22:31;;;;;;;8.00;4.20;;;;;;;14.01;61.37;100339.86;1742193;80;21596;-46
2022/10/19 08:24:57;;;;;;;8.45;3.83;;;;;;;14.01;61.18;100327.45;1750611;80;21052;-46
2022/10/19 08:27:24;;;;;;;6.92;3.90;;;;;;;14.02;61.29;100329.60;1733228;80;21243;-46
2022/10/19 08:29:51;;;;;;;7.78;3.45;;;;;;;14.03;61.32;100330.78;1728851;80;21023;-47
2022/10/19 08:32:18;;;;;;;7.78;4.05;;;;;;;14.03;61.04;100333.93;1734017;80;21121;-46
2022/10/19 08:34:45;;;;;;;7.45;3.17;;;;;;;14.02;61.07;100341.51;1743264;80;20997;-47
2022/10/19 08:37:11;;;;;;;6.50;3.42;;;;;;;14.09;60.97;100343.94;1731880;80;21023;-47
2022/10/19 08:39:39;;;;;;;6.45;3.65;;;;;;;14.19;60.71;100348.69;1728797;80;21581;-46
2022/10/19 08:42:16;;;;;;;7.60;3.70;;;;;;;14.24;60.33;100344.25;1746601;80;21062;-46
2022/10/19 08:44:58;;;;;;;8.10;3.40;;;;;;;14.28;60.56;100344.31;1744139;80;21090;-47
2022/10/19 08:47:50;;;;;;;8.95;3.50;;;;;;;14.28;60.31;100346.46;1746015;80;21612;-46
2022/10/19 08:50:21;;;;;;;7.90;3.62;;;;;;;14.26;60.29;100354.22;1739353;80;21054;-48
2022/10/19 08:53:02;;;;;;;6.33;2.62;;;;;;;14.22;60.11;100356.80;1740513;80;21087;-47
2022/10/19 08:55:54;;;;;;;5.25;2.33;;;;;;;14.18;60.19;100359.41;1699812;82;21514;-46
2022/10/19 08:58:41;;;;;;;5.85;2.00;;;;;;;14.20;59.68;100364.06;1713462;80;21962;-46
2022/10/19 09:01:31;;;;;;;5.83;2.52;;;;;;;14.20;58.81;100356.95;1731110;81;21548;-46
2022/10/19 09:04:29;;;;;;;4.92;2.15;;;;;;;14.21;59.10;100357.30;1719776;80;21061;-46
2022/10/19 09:07:04;;;;;;;5.53;2.22;;;;;;;14.21;58.71;100350.69;1732880;80;21148;-47
2022/10/19 09:09:31;;;;;;;5.20;2.17;;;;;;;14.21;58.95;100354.66;1757300;81;21540;-47
2022/10/19 09:12:05;;;;;;;5.17;2.37;;;;;;;14.23;59.19;100359.30;1754799;81;21003;-47
2022/10/19 09:14:41;;;;;;;4.28;2.00;;;;;;;14.25;59.47;100359.16;1763238;80;21070;-48
2022/10/19 09:17:13;;;;;;;5.67;2.12;;;;;;;14.30;59.56;100354.25;1732113;80;20995;-47
2022/10/19 09:19:39;;;;;;;4.60;2.25;;;;;;;14.37;59.56;100354.00;1719952;81;21117;-47
2022/10/19 09:22:23;;;;;;;5.78;1.98;;;;;;;14.46;59.53;100348.33;1730385;80;21063;-48
2022/10/19 09:25:01;;;;;;;4.22;1.50;;;;;;;14.47;58.62;100355.27;1728231;82;21050;-46
2022/10/19 09:27:35;;;;;;;6.42;1.75;;;;;;;14.47;58.54;100359.24;1742796;80;21080;-46
2022/10/19 09:30:21;;;;;;;4.62;1.70;;;;;;;14.48;58.59;100350.33;1732016;80;21081;-46
2022/10/19 09:32:50;;;;;;;5.12;1.67;;;;;;;14.49;58.08;100351.50;1745640;80;21878;-47
2022/10/19 09:35:36;;;;;;;4.20;1.60;;;;;;;14.53;57.63;100352.04;1732705;82;21431;-47
2022/10/19 09:38:04;;;;;;;3.47;1.20;;;;;;;14.53;57.49;100360.48;1735021;80;21556;-47
2022/10/19 09:40:31;;;;;;;5.00;1.45;;;;;;;14.50;56.92;100357.62;1733702;80;21034;-46
2022/10/19 09:42:58;;;;;;;6.58;2.10;;;;;;;14.50;57.12;100350.51;1744041;80;21086;-47
2022/10/19 09:45:50;;;;;;;4.25;1.90;;;;;;;14.52;57.12;100341.09;1690454;84;21214;-46
2022/10/19 09:48:27;;;;;;;4.35;1.85;;;;;;;14.55;56.86;100338.16;1708707;81;21072;-46
2022/10/19 09:50:59;;;;;;;6.28;1.77;;;;;;;14.55;56.56;100339.48;1728928;80;21498;-47
2022/10/19 09:53:25;;;;;;;6.50;1.95;;;;;;;14.58;56.59;100338.36;1734198;80;21133;-46
2022/10/19 09:56:05;;;;;;;5.75;1.98;;;;;;;14.59;56.86;100338.71;1748090;80;21066;-46
2022/10/19 09:58:37;;;;;;;5.67;1.90;;;;;;;14.61;56.95;100347.36;1758245;79;21017;-46
2022/10/19 10:01:04;;;;;;;5.70;1.90;;;;;;;14.58;56.55;100341.83;1768022;79;21101;-47
2022/10/19 10:03:39;;;;;;;5.95;2.58;;;;;;;14.55;56.94;100341.30;1710453;81;21509;-46
2022/10/19 10:06:11;;;;;;;6.35;1.98;;;;;;;14.52;56.80;100343.74;1752763;80;21065;-51
2022/10/19 10:08:56;;;;;;;8.35;2.00;;;;;;;14.47;56.81;100348.66;1762957;79;21128;-48
2022/10/19 10:11:30;;;;;;;5.33;2.08;;;;;;;14.44;56.83;100338.36;1753713;80;21776;-46
2022/10/19 10:13:59;;;;;;;4.65;1.92;;;;;;;14.43;57.15;100332.73;1746687;80;21444;-46
2022/10/19 10:16:29;;;;;;;4.28;1.98;;;;;;;14.46;57.16;100332.45;1754659;80;21081;-47
2022/10/19 10:19:00;;;;;;;6.67;2.25;;;;;;;14.54;57.32;100333.00;1739481;80;21084;-46
2022/10/19 10:21:33;;;;;;;6.00;2.60;;;;;;;14.60;57.24;100328.47;1741440;80;21070;-47
2022/10/19 10:24:10;;;;;;;5.85;2.33;;;;;;;14.59;57.34;100323.68;1741596;80;21263;-46
2022/10/19 10:26:48;;;;;;;5.65;2.60;;;;;;;14.62;57.29;100324.67;1740299;81;21010;-47
2022/10/19 10:29:25;;;;;;;6.55;2.85;;;;;;;14.65;57.08;100320.91;1736950;80;21049;-46
2022/10/19 10:32:06;;;;;;;7.12;2.67;;;;;;;14.66;57.15;100318.61;1731994;80;21137;-46
2022/10/19 10:34:46;;;;;;;6.45;2.67;;;;;;;14.67;57.00;100321.08;1773305;79;21078;-46
2022/10/19 10:37:18;;;;;;;7.42;2.58;;;;;;;14.66;57.25;100309.34;1747969;80;21217;-46
2022/10/19 10:39:45;;;;;;;6.58;2.50;;;;;;;14.66;57.33;100309.34;1728794;80;21553;-47
2022/10/19 10:42:18;;;;;;;5.92;2.30;;;;;;;14.66;57.42;100309.34;1752653;80;21556;-47
2022/10/19 10:44:47;;;;;;;5.60;2.62;;;;;;;14.65;57.84;100305.02;1738599;80;21058;-47
2022/10/19 10:47:15;;;;;;;6.55;1.87;;;;;;;14.63;57.12;100308.31;1735703;81;21118;-47
2022/10/19 10:49:42;;;;;;;5.08;1.87;;;;;;;14.59;57.13;100315.73;1718069;81;21844;-47
2022/10/19 10:52:13;;;;;;;5.17;2.25;;;;;;;14.59;57.23;100319.70;1743332;80;22026;-48
2022/10/19 10:54:39;;;;;;;6.25;2.52;;;;;;;14.52;57.22;100315.94;1730193;80;21097;-47
2022/10/19 10:57:12;;;;;;;6.17;2.17;;;;;;;14.52;57.56;100309.32;1736753;80;21504;-47
2022/10/19 11:00:06;;;;;;;5.47;2.20;;;;;;;14.53;57.58;100296.44;1734465;80;21056;-47
2022/10/19 11:03:08;;;;;;;4.72;1.80;;;;;;;14.56;57.53;100293.49;1739792;80;21291;-47
2022/10/19 11:05:47;;;;;;;7.40;2.67;;;;;;;14.63;57.20;100298.55;1732541;81;21062;-48
2022/10/19 11:08:41;;;;;;;6.45;2.30;;;;;;;14.72;56.92;100291.50;1740406;80;21034;-46
2022/10/19 11:11:20;;;;;;;4.08;1.82;;;;;;;14.78;56.73;100294.05;1769483;79;21005;-47
2022/10/19 11:14:28;;;;;;;4.65;2.02;;;;;;;14.79;55.99;100287.28;1735599;80;20999;-48
2022/10/19 11:16:59;;;;;;;5.22;2.05;;;;;;;14.84;55.88;100277.53;1727969;82;21119;-48
2022/10/19 11:19:40;;;;;;;6.92;2.20;;;;;;;14.82;55.79;100267.59;1736108;80;21065;-47
2022/10/19 11:22:33;;;;;;;4.40;1.62;;;;;;;14.83;55.31;100271.91;1737734;81;21061;-46
2022/10/19 11:25:22;;;;;;;4.55;1.95;;;;;;;14.85;55.29;100272.59;1749154;80;21130;-49
2022/10/19 11:28:06;;;;;;;4.50;1.60;;;;;;;14.85;53.62;100267.28;1757463;80;21110;-46
2022/10/19 11:30:38;;;;;;;4.67;1.85;;;;;;;14.85;53.54;100260.66;1730568;80;21776;-49
2022/10/19 11:33:29;;;;;;;5.78;1.70;;;;;;;14.85;52.09;100259.34;1735869;80;21163;-47
2022/10/19 11:36:01;;;;;;;4.35;1.50;;;;;;;14.88;51.39;100252.89;1748471;80;21086;-46
2022/10/19 11:39:00;;;;;;;3.08;1.20;;;;;;;14.89;51.50;100246.11;1748839;79;21082;-47
2022/10/19 11:42:07;;;;;;;3.80;1.60;;;;;;;14.90;51.00;100241.67;1754581;80;21033;-47
2022/10/19 11:44:59;;;;;;;5.55;2.00;;;;;;;14.96;50.43;100238.38;1748731;80;21042;-47
2022/10/19 11:48:06;;;;;;;8.28;2.35;;;;;;;15.07;48.28;100230.19;1749926;80;21047;-47
2022/10/19 11:50:55;;;;;;;4.20;1.75;;;;;;;15.19;47.41;100234.73;1737214;80;21093;-46
2022/10/19 11:53:39;;;;;;;4.12;1.50;;;;;;;15.35;46.30;100238.80;1732487;80;21018;-47